createdAt,value
2023-03-16T00:00:27.645Z,0.20
2023-03-16T00:01:27.428Z,0.21
2023-03-16T00:02:27.475Z,0.24
2023-03-16T00:03:27.460Z,0.23
2023-03-16T00:04:27.398Z,0.25
2023-03-16T00:05:27.396Z,0.25
2023-03-16T00:06:27.364Z,0.20
2023-03-16T00:07:27.372Z,0.20
2023-03-16T00:08:27.355Z,0.16
2023-03-16T00:09:27.338Z,0.13
2023-03-16T00:10:27.797Z,0.10
2023-03-16T00:11:27.320Z,0.10
2023-03-16T00:12:27.342Z,0.09
2023-03-16T00:13:27.305Z,0.09
2023-03-16T00:14:27.283Z,0.10
2023-03-16T00:15:27.303Z,0.09
2023-03-16T00:16:27.299Z,0.07
2023-03-16T00:17:27.276Z,0.06
2023-03-16T00:18:27.385Z,0.09
2023-03-16T00:19:27.243Z,0.07
2023-03-16T00:20:27.488Z,0.09
2023-03-16T00:21:27.232Z,0.12
2023-03-16T00:22:27.247Z,0.09
2023-03-16T00:23:27.326Z,0.10
2023-03-16T00:24:27.194Z,0.12
2023-03-16T00:25:27.205Z,0.10
2023-03-16T00:26:27.352Z,0.15
2023-03-16T00:27:27.201Z,0.18
2023-03-16T00:28:27.235Z,0.23
2023-03-16T00:29:27.150Z,0.23
2023-03-16T00:30:27.309Z,0.20
2023-03-16T00:31:27.166Z,0.23
2023-03-16T00:32:27.140Z,0.16
2023-03-16T00:33:27.114Z,0.16
2023-03-16T00:34:27.108Z,0.16
2023-03-16T00:35:27.092Z,0.13
2023-03-16T00:36:27.060Z,0.09
2023-03-16T00:37:27.156Z,0.05
2023-03-16T00:38:27.040Z,0.02
2023-03-16T00:39:27.028Z,0.03
2023-03-16T00:40:30.235Z,0.02
2023-03-16T00:41:27.013Z,0.06
2023-03-16T00:42:27.010Z,0.07
2023-03-16T00:43:26.998Z,0.10
2023-03-16T00:44:26.973Z,0.10
2023-03-16T00:45:26.988Z,0.12
2023-03-16T00:46:26.954Z,0.12
2023-03-16T00:47:26.955Z,0.12
2023-03-16T00:48:26.940Z,0.07
2023-03-16T00:49:26.947Z,0.09
2023-03-16T00:50:27.132Z,0.09
2023-03-16T00:51:26.916Z,0.09
2023-03-16T00:52:26.911Z,0.07
2023-03-16T00:53:26.889Z,0.07
2023-03-16T00:54:26.876Z,0.07
2023-03-16T00:55:26.887Z,0.09
2023-03-16T00:56:26.860Z,0.05
2023-03-16T00:57:26.852Z,0.02
2023-03-16T00:58:26.852Z,-0.04
2023-03-16T00:59:26.829Z,-0.06
2023-03-16T01:00:27.042Z,-0.08
2023-03-16T01:01:26.847Z,-0.08
2023-03-16T01:02:26.797Z,-0.09
2023-03-16T01:03:26.841Z,-0.08
2023-03-16T01:04:26.788Z,-0.09
2023-03-16T01:05:26.801Z,-0.13
2023-03-16T01:06:26.754Z,-0.19
2023-03-16T01:07:26.753Z,-0.23
2023-03-16T01:08:26.749Z,-0.24
2023-03-16T01:09:26.743Z,-0.27
2023-03-16T01:10:27.102Z,-0.30
2023-03-16T01:11:26.710Z,-0.31
2023-03-16T01:12:26.692Z,-0.33
2023-03-16T01:13:26.698Z,-0.33
2023-03-16T01:14:26.678Z,-0.34
2023-03-16T01:15:26.679Z,-0.33
2023-03-16T01:16:26.712Z,-0.31
2023-03-16T01:17:26.654Z,-0.33
2023-03-16T01:18:26.634Z,-0.33
2023-03-16T01:19:26.628Z,-0.30
2023-03-16T01:20:27.078Z,-0.33
2023-03-16T01:21:26.621Z,-0.31
2023-03-16T01:22:26.595Z,-0.29
2023-03-16T01:23:26.601Z,-0.30
2023-03-16T01:24:26.583Z,-0.30
2023-03-16T01:25:26.590Z,-0.27
2023-03-16T01:26:26.559Z,-0.24
2023-03-16T01:27:26.557Z,-0.19
2023-03-16T01:28:26.549Z,-0.16
2023-03-16T01:29:26.536Z,-0.15
2023-03-16T01:30:26.864Z,-0.13
2023-03-16T01:31:26.505Z,-0.16
2023-03-16T01:32:26.533Z,-0.23
2023-03-16T01:33:26.487Z,-0.24
2023-03-16T01:34:26.478Z,-0.24
2023-03-16T01:35:26.508Z,-0.27
2023-03-16T01:36:26.503Z,-0.29
2023-03-16T01:37:26.450Z,-0.29
2023-03-16T01:38:26.442Z,-0.29
2023-03-16T01:39:26.472Z,-0.29
2023-03-16T01:40:26.822Z,-0.29
2023-03-16T01:41:26.408Z,-0.27
2023-03-16T01:42:26.400Z,-0.30
2023-03-16T01:43:26.388Z,-0.36
2023-03-16T01:44:26.413Z,-0.36
2023-03-16T01:45:26.381Z,-0.33
2023-03-16T01:46:26.420Z,-0.33
2023-03-16T01:47:26.415Z,-0.33
2023-03-16T01:48:26.340Z,-0.29
2023-03-16T01:49:26.334Z,-0.30
2023-03-16T01:50:26.614Z,-0.30
2023-03-16T01:51:26.339Z,-0.24
2023-03-16T01:52:26.299Z,-0.24
2023-03-16T01:53:26.377Z,-0.22
2023-03-16T01:54:26.273Z,-0.23
2023-03-16T01:55:26.283Z,-0.19
2023-03-16T01:56:26.268Z,-0.16
2023-03-16T01:57:26.250Z,-0.15
2023-03-16T01:58:26.229Z,-0.11
2023-03-16T01:59:26.297Z,-0.08
2023-03-16T02:00:26.621Z,-0.08
2023-03-16T02:01:26.285Z,-0.09
2023-03-16T02:02:26.203Z,-0.08
2023-03-16T02:03:26.210Z,-0.04
2023-03-16T02:04:26.242Z,-0.04
2023-03-16T02:05:26.182Z,-0.05
2023-03-16T02:06:26.153Z,-0.08
2023-03-16T02:07:26.176Z,-0.12
2023-03-16T02:08:26.136Z,-0.15
2023-03-16T02:09:26.140Z,-0.18
2023-03-16T02:10:26.516Z,-0.19
2023-03-16T02:11:26.105Z,-0.23
2023-03-16T02:12:26.151Z,-0.26
2023-03-16T02:13:26.111Z,-0.26
2023-03-16T02:14:26.088Z,-0.27
2023-03-16T02:15:26.154Z,-0.30
2023-03-16T02:16:26.048Z,-0.31
2023-03-16T02:17:26.051Z,-0.36
2023-03-16T02:18:26.028Z,-0.34
2023-03-16T02:19:26.030Z,-0.36
2023-03-16T02:20:26.470Z,-0.36
2023-03-16T02:21:26.004Z,-0.36
2023-03-16T02:22:25.992Z,-0.33
2023-03-16T02:23:25.984Z,-0.30
2023-03-16T02:24:25.972Z,-0.27
2023-03-16T02:25:25.977Z,-0.26
2023-03-16T02:26:25.950Z,-0.24
2023-03-16T02:27:25.950Z,-0.26
2023-03-16T02:28:25.928Z,-0.24
2023-03-16T02:29:25.930Z,-0.24
2023-03-16T02:30:26.383Z,-0.23
2023-03-16T02:31:25.963Z,-0.23
2023-03-16T02:32:25.937Z,-0.16
2023-03-16T02:33:25.883Z,-0.16
2023-03-16T02:34:25.920Z,-0.15
2023-03-16T02:35:25.932Z,-0.13
2023-03-16T02:36:25.883Z,-0.11
2023-03-16T02:37:25.849Z,-0.08
2023-03-16T02:38:25.867Z,-0.09
2023-03-16T02:39:25.895Z,-0.09
2023-03-16T02:40:26.193Z,-0.12
2023-03-16T02:41:25.861Z,-0.11
2023-03-16T02:42:25.791Z,-0.13
2023-03-16T02:43:25.815Z,-0.15
2023-03-16T02:44:25.780Z,-0.16
2023-03-16T02:45:25.774Z,-0.19
2023-03-16T02:46:25.797Z,-0.22
2023-03-16T02:47:25.759Z,-0.23
2023-03-16T02:48:25.730Z,-0.26
2023-03-16T02:49:25.736Z,-0.27
2023-03-16T02:50:26.049Z,-0.30
2023-03-16T02:51:25.713Z,-0.33
2023-03-16T02:52:25.689Z,-0.34
2023-03-16T02:53:25.691Z,-0.39
2023-03-16T02:54:25.719Z,-0.42
2023-03-16T02:55:25.686Z,-0.44
2023-03-16T02:56:25.665Z,-0.50
2023-03-16T02:57:25.650Z,-0.51
2023-03-16T02:58:25.640Z,-0.51
2023-03-16T02:59:25.641Z,-0.51
2023-03-16T03:00:25.830Z,-0.51
2023-03-16T03:01:25.609Z,-0.51
2023-03-16T03:02:25.596Z,-0.51
2023-03-16T03:03:25.691Z,-0.51
2023-03-16T03:04:25.580Z,-0.51
2023-03-16T03:05:25.576Z,-0.51
2023-03-16T03:06:25.550Z,-0.51
2023-03-16T03:07:25.548Z,-0.50
2023-03-16T03:08:25.551Z,-0.50
2023-03-16T03:09:25.546Z,-0.47
2023-03-16T03:10:25.851Z,-0.44
2023-03-16T03:11:25.514Z,-0.41
2023-03-16T03:12:25.500Z,-0.41
2023-03-16T03:13:25.505Z,-0.44
2023-03-16T03:14:25.516Z,-0.47
2023-03-16T03:15:25.494Z,-0.48
2023-03-16T03:16:25.564Z,-0.50
2023-03-16T03:17:25.454Z,-0.51
2023-03-16T03:18:25.473Z,-0.55
2023-03-16T03:19:25.430Z,-0.59
2023-03-16T03:20:25.449Z,-0.63
2023-03-16T03:21:25.433Z,-0.63
2023-03-16T03:22:25.398Z,-0.63
2023-03-16T03:23:25.395Z,-0.68
2023-03-16T03:24:25.399Z,-0.66
2023-03-16T03:25:25.397Z,-0.66
2023-03-16T03:26:25.359Z,-0.68
2023-03-16T03:27:25.380Z,-0.66
2023-03-16T03:28:25.326Z,-0.66
2023-03-16T03:29:25.333Z,-0.63
2023-03-16T03:30:25.337Z,-0.62
2023-03-16T03:31:25.346Z,-0.63
2023-03-16T03:32:25.373Z,-0.63
2023-03-16T03:33:25.305Z,-0.66
2023-03-16T03:34:25.281Z,-0.65
2023-03-16T03:35:25.326Z,-0.63
2023-03-16T03:36:25.265Z,-0.60
2023-03-16T03:37:25.242Z,-0.60
2023-03-16T03:38:25.238Z,-0.62
2023-03-16T03:39:25.236Z,-0.59
2023-03-16T03:40:25.331Z,-0.62
2023-03-16T03:41:25.210Z,-0.62
2023-03-16T03:42:25.186Z,-0.63
2023-03-16T03:43:25.180Z,-0.65
2023-03-16T03:44:25.190Z,-0.66
2023-03-16T03:45:25.181Z,-0.68
2023-03-16T03:46:25.252Z,-0.65
2023-03-16T03:47:25.186Z,-0.66
2023-03-16T03:48:25.125Z,-0.65
2023-03-16T03:49:25.144Z,-0.66
2023-03-16T03:50:25.216Z,-0.68
2023-03-16T03:51:25.146Z,-0.69
2023-03-16T03:52:25.121Z,-0.72
2023-03-16T03:53:25.089Z,-0.73
2023-03-16T03:54:25.143Z,-0.73
2023-03-16T03:55:25.086Z,-0.72
2023-03-16T03:56:25.053Z,-0.73
2023-03-16T03:57:25.044Z,-0.75
2023-03-16T03:58:25.055Z,-0.72
2023-03-16T03:59:25.019Z,-0.70
2023-03-16T04:00:25.113Z,-0.72
2023-03-16T04:01:25.015Z,-0.73
2023-03-16T04:02:25.200Z,-0.72
2023-03-16T04:03:25.069Z,-0.70
2023-03-16T04:04:24.976Z,-0.70
2023-03-16T04:05:24.974Z,-0.77
2023-03-16T04:06:24.959Z,-0.80
2023-03-16T04:07:24.940Z,-0.81
2023-03-16T04:08:24.891Z,-0.86
2023-03-16T04:09:24.932Z,-0.84
2023-03-16T04:10:25.095Z,-0.84
2023-03-16T04:11:24.924Z,-0.81
2023-03-16T04:12:24.901Z,-0.81
2023-03-16T04:13:24.889Z,-0.81
2023-03-16T04:14:24.868Z,-0.78
2023-03-16T04:15:24.894Z,-0.80
2023-03-16T04:16:24.914Z,-0.80
2023-03-16T04:17:24.798Z,-0.81
2023-03-16T04:18:24.838Z,-0.80
2023-03-16T04:19:24.808Z,-0.78
2023-03-16T04:20:24.929Z,-0.77
2023-03-16T04:21:24.822Z,-0.75
2023-03-16T04:22:24.787Z,-0.75
2023-03-16T04:23:24.773Z,-0.78
2023-03-16T04:24:24.765Z,-0.80
2023-03-16T04:25:24.762Z,-0.87
2023-03-16T04:26:24.755Z,-0.86
2023-03-16T04:27:24.727Z,-0.86
2023-03-16T04:28:24.724Z,-0.86
2023-03-16T04:29:24.732Z,-0.87
2023-03-16T04:30:24.736Z,-0.91
2023-03-16T04:31:24.822Z,-0.92
2023-03-16T04:32:24.768Z,-0.89
2023-03-16T04:33:24.674Z,-0.92
2023-03-16T04:34:24.677Z,-0.92
2023-03-16T04:35:24.690Z,-0.89
2023-03-16T04:36:24.660Z,-0.87
2023-03-16T04:37:24.645Z,-0.89
2023-03-16T04:38:24.802Z,-0.86
2023-03-16T04:39:24.630Z,-0.81
2023-03-16T04:40:24.653Z,-0.86
2023-03-16T04:41:24.603Z,-0.86
2023-03-16T04:42:24.586Z,-0.87
2023-03-16T04:43:24.585Z,-0.86
2023-03-16T04:44:24.573Z,-0.87
2023-03-16T04:45:24.571Z,-0.87
2023-03-16T04:46:24.656Z,-0.89
2023-03-16T04:47:24.554Z,-0.86
2023-03-16T04:48:24.578Z,-0.87
2023-03-16T04:49:24.517Z,-0.87
2023-03-16T04:50:24.532Z,-0.87
2023-03-16T04:51:24.538Z,-0.89
2023-03-16T04:52:24.483Z,-0.91
2023-03-16T04:53:24.499Z,-0.89
2023-03-16T04:54:24.499Z,-0.89
2023-03-16T04:55:24.467Z,-0.91
2023-03-16T04:56:24.564Z,-0.91
2023-03-16T04:57:24.455Z,-0.92
2023-03-16T04:58:24.450Z,-0.91
2023-03-16T04:59:24.364Z,-0.94
2023-03-16T05:00:24.415Z,-0.94
2023-03-16T05:01:24.454Z,-0.95
2023-03-16T05:02:24.382Z,-0.94
2023-03-16T05:03:24.343Z,-0.92
2023-03-16T05:04:24.307Z,-0.92
2023-03-16T05:05:24.450Z,-0.91
2023-03-16T05:06:24.329Z,-0.89
2023-03-16T05:07:24.295Z,-0.84
2023-03-16T05:08:24.280Z,-0.89
2023-03-16T05:09:24.275Z,-0.91
2023-03-16T05:10:24.280Z,-0.91
2023-03-16T05:11:24.253Z,-0.91
2023-03-16T05:12:24.234Z,-0.94
2023-03-16T05:13:24.241Z,-0.94
2023-03-16T05:14:24.229Z,-0.94
2023-03-16T05:15:24.221Z,-0.95
2023-03-16T05:16:24.283Z,-0.95
2023-03-16T05:17:24.176Z,-1.00
2023-03-16T05:18:24.205Z,-0.99
2023-03-16T05:19:24.180Z,-1.00
2023-03-16T05:20:24.176Z,-1.00
2023-03-16T05:21:24.138Z,-0.99
2023-03-16T05:22:24.141Z,-1.00
2023-03-16T05:23:24.128Z,-0.99
2023-03-16T05:24:24.116Z,-0.99
2023-03-16T05:25:24.106Z,-0.99
2023-03-16T05:26:24.107Z,-1.00
2023-03-16T05:27:24.084Z,-1.03
2023-03-16T05:28:24.088Z,-1.02
2023-03-16T05:29:24.064Z,-1.00
2023-03-16T05:30:24.073Z,-0.99
2023-03-16T05:31:24.126Z,-1.02
2023-03-16T05:32:24.097Z,-0.99
2023-03-16T05:33:24.051Z,-0.99
2023-03-16T05:34:24.044Z,-0.97
2023-03-16T05:35:24.389Z,-0.95
2023-03-16T05:36:24.023Z,-0.95
2023-03-16T05:37:23.973Z,-0.95
2023-03-16T05:38:23.983Z,-0.99
2023-03-16T05:39:23.974Z,-0.97
2023-03-16T05:40:23.982Z,-1.00
2023-03-16T05:41:23.950Z,-0.99
2023-03-16T05:42:23.951Z,-0.99
2023-03-16T05:43:23.960Z,-0.99
2023-03-16T05:44:23.912Z,-1.00
2023-03-16T05:45:23.915Z,-1.02
2023-03-16T05:46:23.977Z,-0.99
2023-03-16T05:47:23.904Z,-1.02
2023-03-16T05:48:23.893Z,-1.03
2023-03-16T05:49:23.877Z,-1.03
2023-03-16T05:50:23.864Z,-0.99
2023-03-16T05:51:23.862Z,-0.97
2023-03-16T05:52:23.855Z,-0.99
2023-03-16T05:53:23.857Z,-0.95
2023-03-16T05:54:23.818Z,-0.94
2023-03-16T05:55:23.828Z,-0.92
2023-03-16T05:56:23.804Z,-0.91
2023-03-16T05:57:23.815Z,-0.87
2023-03-16T05:58:23.797Z,-0.86
2023-03-16T05:59:23.777Z,-0.83
2023-03-16T06:00:23.817Z,-0.81
2023-03-16T06:01:23.745Z,-0.80
2023-03-16T06:02:23.828Z,-0.80
2023-03-16T06:03:23.742Z,-0.81
2023-03-16T06:04:23.749Z,-0.78
2023-03-16T06:05:23.728Z,-0.78
2023-03-16T06:06:23.703Z,-0.73
2023-03-16T06:07:23.688Z,-0.70
2023-03-16T06:08:23.710Z,-0.70
2023-03-16T06:09:23.682Z,-0.72
2023-03-16T06:10:23.664Z,-0.70
2023-03-16T06:11:23.661Z,-0.69
2023-03-16T06:12:23.676Z,-0.66
2023-03-16T06:13:23.626Z,-0.66
2023-03-16T06:14:23.614Z,-0.65
2023-03-16T06:15:23.614Z,-0.62
2023-03-16T06:16:23.712Z,-0.57
2023-03-16T06:17:23.591Z,-0.52
2023-03-16T06:18:23.611Z,-0.51
2023-03-16T06:19:23.571Z,-0.50
2023-03-16T06:20:23.567Z,-0.44
2023-03-16T06:21:23.551Z,-0.42
2023-03-16T06:22:23.617Z,-0.41
2023-03-16T06:23:23.536Z,-0.34
2023-03-16T06:24:23.539Z,-0.34
2023-03-16T06:25:23.535Z,-0.31
2023-03-16T06:26:23.512Z,-0.27
2023-03-16T06:27:23.500Z,-0.23
2023-03-16T06:28:23.483Z,-0.18
2023-03-16T06:29:23.458Z,-0.13
2023-03-16T06:30:23.482Z,-0.12
2023-03-16T06:31:23.535Z,-0.06
2023-03-16T06:32:23.645Z,-0.04
2023-03-16T06:33:23.442Z,0.05
2023-03-16T06:34:23.431Z,0.10
2023-03-16T06:35:23.427Z,0.16
2023-03-16T06:36:23.404Z,0.23
2023-03-16T06:37:23.380Z,0.27
2023-03-16T06:38:23.381Z,0.30
2023-03-16T06:39:23.382Z,0.36
2023-03-16T06:40:23.374Z,0.39
2023-03-16T06:41:23.421Z,0.43
2023-03-16T06:42:23.370Z,0.49
2023-03-16T06:43:23.317Z,0.53
2023-03-16T06:44:23.322Z,0.61
2023-03-16T06:45:24.055Z,0.65
2023-03-16T06:46:23.459Z,0.70
2023-03-16T06:47:23.277Z,0.76
2023-03-16T06:48:23.347Z,0.78
2023-03-16T06:49:23.266Z,0.78
2023-03-16T06:50:23.278Z,0.82
2023-03-16T06:51:23.242Z,0.82
2023-03-16T06:52:23.253Z,0.82
2023-03-16T06:53:23.229Z,0.83
2023-03-16T06:54:23.228Z,0.83
2023-03-16T06:55:23.229Z,0.86
2023-03-16T06:56:23.207Z,0.88
2023-03-16T06:57:23.205Z,0.88
2023-03-16T06:58:23.220Z,0.89
2023-03-16T06:59:23.213Z,0.92
2023-03-16T07:00:24.168Z,0.96
2023-03-16T07:01:23.228Z,0.98
2023-03-16T07:02:23.171Z,1.04
2023-03-16T07:03:23.135Z,1.04
2023-03-16T07:04:23.215Z,1.07
2023-03-16T07:05:23.125Z,1.14
2023-03-16T07:06:23.088Z,1.14
2023-03-16T07:07:23.094Z,1.19
2023-03-16T07:08:23.088Z,1.24
2023-03-16T07:09:23.053Z,1.25
2023-03-16T07:10:23.079Z,1.28
2023-03-16T07:11:23.042Z,1.29
2023-03-16T07:12:23.077Z,1.36
2023-03-16T07:13:23.018Z,1.40
2023-03-16T07:14:23.027Z,1.39
2023-03-16T07:15:23.021Z,1.39
2023-03-16T07:16:23.027Z,1.42
2023-03-16T07:17:22.968Z,1.47
2023-03-16T07:18:22.999Z,1.50
2023-03-16T07:19:22.959Z,1.50
2023-03-16T07:20:23.803Z,1.50
2023-03-16T07:21:22.954Z,1.52
2023-03-16T07:22:22.936Z,1.60
2023-03-16T07:23:22.917Z,1.61
2023-03-16T07:24:22.911Z,1.65
2023-03-16T07:25:22.946Z,1.73
2023-03-16T07:26:22.890Z,1.79
2023-03-16T07:27:22.899Z,1.80
2023-03-16T07:28:22.872Z,1.85
2023-03-16T07:29:22.860Z,1.90
2023-03-16T07:30:22.882Z,1.93
2023-03-16T07:31:22.893Z,1.94
2023-03-16T07:32:22.843Z,1.97
2023-03-16T07:33:22.820Z,1.98
2023-03-16T07:34:22.817Z,2.01
2023-03-16T07:35:22.823Z,2.04
2023-03-16T07:36:22.793Z,2.06
2023-03-16T07:37:25.872Z,2.06
2023-03-16T07:38:22.786Z,2.09
2023-03-16T07:39:22.753Z,2.08
2023-03-16T07:40:22.752Z,2.16
2023-03-16T07:41:22.748Z,2.15
2023-03-16T07:42:22.790Z,2.16
2023-03-16T07:43:22.747Z,2.19
2023-03-16T07:44:22.718Z,2.20
2023-03-16T07:45:22.687Z,2.27
2023-03-16T07:46:22.726Z,2.30
2023-03-16T07:47:25.958Z,2.31
2023-03-16T07:48:22.680Z,2.35
2023-03-16T07:49:22.666Z,2.40
2023-03-16T07:50:22.708Z,2.37
2023-03-16T07:51:22.651Z,2.44
2023-03-16T07:52:22.628Z,2.49
2023-03-16T07:53:22.634Z,2.55
2023-03-16T07:54:22.637Z,2.59
2023-03-16T07:55:22.609Z,2.69
2023-03-16T07:56:22.599Z,2.74
2023-03-16T07:57:22.594Z,2.81
2023-03-16T07:58:22.593Z,2.84
2023-03-16T07:59:22.572Z,2.88
2023-03-16T08:00:22.614Z,2.92
2023-03-16T08:01:22.588Z,2.95
2023-03-16T08:02:22.653Z,2.98
2023-03-16T08:03:22.623Z,3.00
2023-03-16T08:04:22.565Z,3.02
2023-03-16T08:05:22.561Z,3.05
2023-03-16T08:06:22.595Z,3.03
2023-03-16T08:07:22.525Z,3.07
2023-03-16T08:08:22.527Z,3.10
2023-03-16T08:09:22.466Z,3.15
2023-03-16T08:10:22.461Z,3.20
2023-03-16T08:11:22.451Z,3.24
2023-03-16T08:12:22.440Z,3.20
2023-03-16T08:13:22.498Z,3.25
2023-03-16T08:14:22.402Z,3.36
2023-03-16T08:15:22.423Z,3.46
2023-03-16T08:16:22.418Z,3.49
2023-03-16T08:17:22.389Z,3.46
2023-03-16T08:18:22.405Z,3.39
2023-03-16T08:19:22.368Z,3.49
2023-03-16T08:20:22.360Z,3.52
2023-03-16T08:21:22.411Z,3.57
2023-03-16T08:22:22.331Z,3.62
2023-03-16T08:23:22.361Z,3.64
2023-03-16T08:24:22.348Z,3.65
2023-03-16T08:25:22.319Z,3.70
2023-03-16T08:26:22.322Z,3.76
2023-03-16T08:27:22.305Z,3.83
2023-03-16T08:28:22.292Z,3.94
2023-03-16T08:29:22.274Z,3.96
2023-03-16T08:30:22.313Z,3.90
2023-03-16T08:31:22.302Z,3.94
2023-03-16T08:32:22.236Z,3.97
2023-03-16T08:33:23.410Z,3.94
2023-03-16T08:34:22.247Z,3.85
2023-03-16T08:35:22.239Z,3.92
2023-03-16T08:36:22.193Z,3.92
2023-03-16T08:37:22.186Z,4.01
2023-03-16T08:38:22.205Z,4.10
2023-03-16T08:39:22.175Z,4.04
2023-03-16T08:40:22.160Z,4.06
2023-03-16T08:41:22.156Z,4.12
2023-03-16T08:42:22.152Z,4.16
2023-03-16T08:43:22.240Z,4.12
2023-03-16T08:44:22.124Z,4.14
2023-03-16T08:45:22.117Z,4.24
2023-03-16T08:46:22.136Z,4.25
2023-03-16T08:47:22.100Z,4.26
2023-03-16T08:48:22.164Z,4.36
2023-03-16T08:49:22.085Z,4.39
2023-03-16T08:50:22.087Z,4.42
2023-03-16T08:51:22.048Z,4.43
2023-03-16T08:52:22.977Z,4.54
2023-03-16T08:53:22.053Z,4.65
2023-03-16T08:54:22.006Z,4.72
2023-03-16T08:55:22.023Z,4.73
2023-03-16T08:56:22.038Z,4.75
2023-03-16T08:57:21.992Z,4.89
2023-03-16T08:58:22.005Z,4.88
2023-03-16T08:59:29.703Z,4.89
2023-03-16T09:00:21.961Z,4.92
2023-03-16T09:01:22.009Z,4.91
2023-03-16T09:02:21.941Z,4.77
2023-03-16T09:03:21.941Z,4.83
2023-03-16T09:04:21.943Z,4.86
2023-03-16T09:05:21.919Z,4.91
2023-03-16T09:06:21.883Z,4.88
2023-03-16T09:07:21.939Z,4.92
2023-03-16T09:08:21.878Z,4.96
2023-03-16T09:09:21.872Z,4.96
2023-03-16T09:10:21.900Z,5.01
2023-03-16T09:11:21.868Z,5.09
2023-03-16T09:12:21.832Z,5.13
2023-03-16T09:13:21.857Z,5.19
2023-03-16T09:14:21.808Z,5.14
2023-03-16T09:15:21.805Z,5.16
2023-03-16T09:16:21.828Z,5.28
2023-03-16T09:17:21.792Z,5.43
2023-03-16T09:18:21.793Z,5.50
2023-03-16T09:19:21.847Z,5.63
2023-03-16T09:20:26.173Z,5.64
2023-03-16T09:21:21.771Z,5.63
2023-03-16T09:22:21.780Z,5.66
2023-03-16T09:23:21.762Z,5.68
2023-03-16T09:24:21.710Z,5.71
2023-03-16T09:25:21.748Z,5.81
2023-03-16T09:26:21.708Z,5.89
2023-03-16T09:27:21.733Z,6.00
2023-03-16T09:28:22.234Z,6.00
2023-03-16T09:29:21.806Z,6.04
2023-03-16T09:30:21.681Z,6.03
2023-03-16T09:31:21.695Z,6.10
2023-03-16T09:32:21.627Z,6.21
2023-03-16T09:33:21.657Z,6.32
2023-03-16T09:34:21.625Z,6.36
2023-03-16T09:35:21.618Z,6.38
2023-03-16T09:36:21.637Z,6.38
2023-03-16T09:37:21.627Z,6.47
2023-03-16T09:38:21.585Z,6.44
2023-03-16T09:39:21.587Z,6.50
2023-03-16T09:40:21.557Z,6.54
2023-03-16T09:41:21.563Z,6.58
2023-03-16T09:42:21.522Z,6.61
2023-03-16T09:43:21.554Z,6.66
2023-03-16T09:44:21.523Z,6.72
2023-03-16T09:45:21.522Z,6.83
2023-03-16T09:46:21.513Z,6.86
2023-03-16T09:47:21.564Z,6.73
2023-03-16T09:48:21.507Z,6.72
2023-03-16T09:49:21.575Z,6.79
2023-03-16T09:50:21.490Z,6.89
2023-03-16T09:51:21.533Z,6.94
2023-03-16T09:52:21.441Z,6.90
2023-03-16T09:53:21.677Z,6.97
2023-03-16T09:54:21.410Z,6.95
2023-03-16T09:55:21.466Z,7.05
2023-03-16T09:56:21.383Z,6.91
2023-03-16T09:57:21.426Z,6.91
2023-03-16T09:58:21.413Z,6.89
2023-03-16T09:59:21.479Z,7.01
2023-03-16T10:00:21.365Z,7.05
2023-03-16T10:01:21.469Z,7.13
2023-03-16T10:02:21.352Z,7.20
2023-03-16T10:03:21.337Z,7.23
2023-03-16T10:04:21.333Z,7.31
2023-03-16T10:05:21.300Z,7.35
2023-03-16T10:06:21.276Z,7.44
2023-03-16T10:07:21.281Z,7.52
2023-03-16T10:08:21.268Z,7.49
2023-03-16T10:09:21.248Z,7.44
2023-03-16T10:10:21.250Z,7.52
2023-03-16T10:11:21.226Z,7.55
2023-03-16T10:12:21.236Z,7.63
2023-03-16T10:13:21.245Z,7.78
2023-03-16T10:14:21.207Z,7.79
2023-03-16T10:15:21.286Z,7.78
2023-03-16T10:16:21.266Z,7.81
2023-03-16T10:17:21.257Z,7.84
2023-03-16T10:18:21.256Z,7.87
2023-03-16T10:19:21.188Z,7.93
2023-03-16T10:20:21.149Z,7.97
2023-03-16T10:21:21.125Z,7.97
2023-03-16T10:22:21.128Z,7.89
2023-03-16T10:23:21.106Z,7.97
2023-03-16T10:24:21.116Z,8.02
2023-03-16T10:25:21.097Z,8.10
2023-03-16T10:26:21.057Z,8.18
2023-03-16T10:27:21.055Z,8.14
2023-03-16T10:28:21.083Z,8.14
2023-03-16T10:29:21.053Z,8.18
2023-03-16T10:30:21.047Z,8.17
2023-03-16T10:31:21.078Z,8.20
2023-03-16T10:32:21.024Z,8.15
2023-03-16T10:33:21.119Z,8.04
2023-03-16T10:34:20.989Z,8.08
2023-03-16T10:35:21.027Z,8.17
2023-03-16T10:36:20.994Z,8.12
2023-03-16T10:37:21.034Z,8.15
2023-03-16T10:38:20.970Z,8.17
2023-03-16T10:39:20.974Z,8.15
2023-03-16T10:40:21.025Z,8.11
2023-03-16T10:41:20.911Z,8.12
2023-03-16T10:42:20.907Z,8.26
2023-03-16T10:43:20.917Z,8.28
2023-03-16T10:44:20.889Z,8.32
2023-03-16T10:45:20.887Z,8.32
2023-03-16T10:46:20.957Z,8.39
2023-03-16T10:47:20.875Z,8.44
2023-03-16T10:48:20.853Z,8.47
2023-03-16T10:49:20.836Z,8.47
2023-03-16T10:50:20.988Z,8.51
2023-03-16T10:51:20.819Z,8.58
2023-03-16T10:52:20.904Z,8.55
2023-03-16T10:53:20.840Z,8.55
2023-03-16T10:54:20.780Z,8.58
2023-03-16T10:55:20.778Z,8.60
2023-03-16T10:56:20.832Z,8.68
2023-03-16T10:57:20.958Z,8.65
2023-03-16T10:58:20.763Z,8.69
2023-03-16T10:59:20.726Z,8.71
2023-03-16T11:00:20.735Z,8.72
2023-03-16T11:01:20.881Z,8.71
2023-03-16T11:02:20.826Z,8.69
2023-03-16T11:03:20.698Z,8.71
2023-03-16T11:04:20.752Z,8.72
2023-03-16T11:05:20.682Z,8.76
2023-03-16T11:06:20.655Z,8.81
2023-03-16T11:07:20.664Z,8.81
2023-03-16T11:08:20.650Z,8.81
2023-03-16T11:09:20.650Z,8.86
2023-03-16T11:10:20.621Z,8.83
2023-03-16T11:11:20.624Z,8.79
2023-03-16T11:12:20.632Z,8.86
2023-03-16T11:13:20.600Z,8.90
2023-03-16T11:14:20.590Z,8.94
2023-03-16T11:15:25.945Z,8.94
2023-03-16T11:16:20.590Z,8.96
2023-03-16T11:17:20.655Z,9.02
2023-03-16T11:18:20.560Z,9.10
2023-03-16T11:19:20.529Z,9.15
2023-03-16T11:20:20.524Z,9.15
2023-03-16T11:21:20.516Z,9.23
2023-03-16T11:22:20.526Z,9.23
2023-03-16T11:23:20.549Z,9.15
2023-03-16T11:24:20.490Z,9.05
2023-03-16T11:25:20.484Z,8.99
2023-03-16T11:26:20.461Z,8.93
2023-03-16T11:27:20.471Z,8.99
2023-03-16T11:28:20.444Z,9.05
2023-03-16T11:29:20.426Z,9.05
2023-03-16T11:30:20.423Z,9.05
2023-03-16T11:31:20.434Z,9.12
2023-03-16T11:32:20.392Z,9.16
2023-03-16T11:33:20.439Z,9.27
2023-03-16T11:34:20.390Z,9.32
2023-03-16T11:35:20.429Z,9.42
2023-03-16T11:36:20.443Z,9.43
2023-03-16T11:37:20.415Z,9.46
2023-03-16T11:38:20.361Z,9.56
2023-03-16T11:39:20.324Z,9.63
2023-03-16T11:40:20.304Z,9.67
2023-03-16T11:41:20.307Z,9.66
2023-03-16T11:42:20.372Z,9.66
2023-03-16T11:43:20.394Z,9.64
2023-03-16T11:44:20.310Z,9.70
2023-03-16T11:45:20.279Z,9.76
2023-03-16T11:46:20.310Z,9.76
2023-03-16T11:47:20.261Z,9.78
2023-03-16T11:48:20.281Z,9.86
2023-03-16T11:49:20.275Z,9.88
2023-03-16T11:50:20.217Z,9.93
2023-03-16T11:51:20.208Z,10.09
2023-03-16T11:52:20.310Z,10.15
2023-03-16T11:53:20.200Z,10.19
2023-03-16T11:54:20.156Z,10.21
2023-03-16T11:55:20.149Z,10.19
2023-03-16T11:56:20.155Z,10.19
2023-03-16T11:57:20.168Z,10.22
2023-03-16T11:58:20.150Z,10.17
2023-03-16T11:59:20.182Z,10.12
2023-03-16T12:00:20.102Z,10.18
2023-03-16T12:01:20.100Z,10.21
2023-03-16T12:02:20.267Z,10.17
2023-03-16T12:03:20.168Z,10.17
2023-03-16T12:04:20.200Z,10.09
2023-03-16T12:05:20.039Z,10.04
2023-03-16T12:06:23.059Z,10.06
2023-03-16T12:07:20.065Z,10.10
2023-03-16T12:08:20.062Z,10.10
2023-03-16T12:09:20.008Z,10.09
2023-03-16T12:10:19.986Z,10.06
2023-03-16T12:11:20.003Z,10.07
2023-03-16T12:12:19.983Z,10.07
2023-03-16T12:13:20.015Z,10.10
2023-03-16T12:14:19.963Z,10.09
2023-03-16T12:15:19.938Z,10.09
2023-03-16T12:16:20.012Z,10.09
2023-03-16T12:17:19.928Z,10.17
2023-03-16T12:18:19.910Z,10.17
2023-03-16T12:19:19.907Z,10.15
2023-03-16T12:20:19.893Z,10.14
2023-03-16T12:21:19.880Z,10.17
2023-03-16T12:22:20.014Z,10.14
2023-03-16T12:23:19.884Z,10.09
2023-03-16T12:24:19.849Z,10.07
2023-03-16T12:25:19.855Z,9.96
2023-03-16T12:26:19.843Z,9.88
2023-03-16T12:27:19.869Z,9.89
2023-03-16T12:28:19.812Z,9.88
2023-03-16T12:29:19.802Z,9.83
2023-03-16T12:30:19.775Z,9.83
2023-03-16T12:31:19.835Z,9.83
2023-03-16T12:32:19.785Z,9.85
2023-03-16T12:33:19.776Z,9.94
2023-03-16T12:34:19.736Z,9.91
2023-03-16T12:35:19.738Z,9.79
2023-03-16T12:36:19.753Z,9.75
2023-03-16T12:37:19.759Z,9.75
2023-03-16T12:38:19.782Z,9.68
2023-03-16T12:39:19.679Z,9.68
2023-03-16T12:40:19.687Z,9.75
2023-03-16T12:41:19.678Z,9.83
2023-03-16T12:42:19.675Z,9.85
2023-03-16T12:43:19.673Z,9.89
2023-03-16T12:44:19.644Z,9.97
2023-03-16T12:45:19.634Z,10.00
2023-03-16T12:46:19.637Z,10.04
2023-03-16T12:47:19.733Z,10.22
2023-03-16T12:48:19.633Z,10.32
2023-03-16T12:49:19.603Z,10.44
2023-03-16T12:50:19.607Z,10.47
2023-03-16T12:51:19.562Z,10.58
2023-03-16T12:52:19.612Z,10.53
2023-03-16T12:53:19.632Z,10.60
2023-03-16T12:54:19.539Z,10.65
2023-03-16T12:55:19.524Z,10.53
2023-03-16T12:56:19.566Z,10.58
2023-03-16T12:57:19.613Z,10.63
2023-03-16T12:58:19.506Z,10.71
2023-03-16T12:59:19.504Z,10.84
2023-03-16T13:00:19.495Z,10.89
2023-03-16T13:01:19.527Z,10.92
2023-03-16T13:02:19.556Z,10.96
2023-03-16T13:03:19.449Z,11.03
2023-03-16T13:04:19.509Z,11.09
2023-03-16T13:05:19.424Z,11.06